Time;durP1;ratioP1;P1;durP2;ratioP2;P2;SDS_P1;SDS_P2;PMS_P1;PMS_P2;Temp;Humidity;BMP_temperature;BMP_pressure;BME280_temperature;BME280_humidity;BME280_pressure;Samples;Min_cycle;Max_cycle;Signal;HPM_P1;HPM_P2
2021/07/03 00:01:40;;;;;;;11.83;7.67;;;;;;;12.23;83.16;96760.34;3571504;40;20452;-72
2021/07/03 00:04:09;;;;;;;11.10;7.10;;;;;;;12.43;82.39;96758.06;3570739;39;20829;-71
2021/07/03 00:06:37;;;;;;;17.30;7.63;;;;;;;12.52;82.05;96756.53;3569503;40;20456;-71
2021/07/03 00:09:20;;;;;;;11.70;8.00;;;;;;;12.64;81.13;96752.97;3544497;40;20469;-72
2021/07/03 00:11:48;;;;;;;15.20;7.07;;;;;;;12.69;81.01;96756.13;3508371;40;1468790;-74
2021/07/03 00:14:17;;;;;;;11.67;6.67;;;;;;;12.71;80.75;96756.84;3547641;40;20250;-73
2021/07/03 00:16:45;;;;;;;16.07;7.03;;;;;;;12.70;80.72;96757.81;3547258;40;20774;-73
2021/07/03 00:19:15;;;;;;;11.93;7.60;;;;;;;12.71;80.75;96767.34;3546081;40;20514;-72
2021/07/03 00:21:42;;;;;;;13.40;8.57;;;;;;;12.66;80.65;96765.06;3546754;40;20810;-71
2021/07/03 00:24:10;;;;;;;11.73;7.73;;;;;;;12.65;80.86;96765.19;3547451;40;20558;-72
2021/07/03 00:26:38;;;;;;;14.40;8.33;;;;;;;12.60;81.34;96772.56;3550058;40;20457;-72
2021/07/03 00:29:06;;;;;;;14.37;7.10;;;;;;;12.61;81.14;96774.25;3548845;40;20882;-72
2021/07/03 00:31:34;;;;;;;15.23;7.10;;;;;;;12.68;80.86;96770.19;3546321;40;20450;-73
2021/07/03 00:34:02;;;;;;;13.87;7.40;;;;;;;12.66;80.96;96758.97;3546704;40;20480;-72
2021/07/03 00:36:31;;;;;;;16.63;8.00;;;;;;;12.58;80.83;96763.94;3541775;40;20938;-74
2021/07/03 00:38:59;;;;;;;14.23;8.87;;;;;;;12.57;81.12;96755.25;3548628;40;20493;-71
2021/07/03 00:41:27;;;;;;;14.13;7.57;;;;;;;12.57;81.08;96751.78;3571345;40;20848;-73
2021/07/03 00:43:55;;;;;;;12.27;7.70;;;;;;;12.56;81.35;96758.81;3572831;40;20455;-72
2021/07/03 00:46:23;;;;;;;14.33;8.60;;;;;;;12.57;81.07;96762.28;3568540;40;20724;-73
2021/07/03 00:48:51;;;;;;;14.00;9.30;;;;;;;12.56;81.39;96760.59;3568217;40;20452;-71
2021/07/03 00:51:19;;;;;;;12.97;9.10;;;;;;;12.40;81.59;96759.09;3510511;40;20491;-72
2021/07/03 00:53:48;;;;;;;15.40;8.57;;;;;;;12.46;81.91;96758.63;3510430;40;20464;-72
2021/07/03 00:56:16;;;;;;;15.23;8.40;;;;;;;12.48;81.56;96758.53;3506982;40;20482;-73
2021/07/03 00:58:44;;;;;;;13.63;8.73;;;;;;;12.51;81.46;96753.06;3507449;40;21198;-73
2021/07/03 01:01:12;;;;;;;18.80;8.63;;;;;;;12.44;81.73;96751.84;3506931;40;20941;-72
2021/07/03 01:03:40;;;;;;;14.93;8.80;;;;;;;12.55;81.32;96758.94;3511675;40;20857;-75
2021/07/03 01:06:08;;;;;;;15.30;8.37;;;;;;;12.48;81.47;96739.31;3509244;40;20922;-74
2021/07/03 01:08:36;;;;;;;13.40;8.97;;;;;;;12.40;81.63;96748.59;3507826;40;20881;-71
2021/07/03 01:11:05;;;;;;;19.40;8.50;;;;;;;12.32;81.93;96744.88;3509333;40;20911;-72
2021/07/03 01:13:33;;;;;;;18.90;8.80;;;;;;;12.35;82.27;96750.75;3506990;40;20959;-71
2021/07/03 01:16:01;;;;;;;13.53;8.90;;;;;;;12.27;82.79;96745.22;3512788;40;20832;-72
2021/07/03 01:18:29;;;;;;;12.77;8.37;;;;;;;12.33;82.54;96742.13;3511347;40;20469;-73
2021/07/03 01:20:58;;;;;;;17.57;8.70;;;;;;;12.37;82.06;96748.84;3509824;40;20464;-71
2021/07/03 01:23:28;;;;;;;19.40;9.17;;;;;;;12.27;82.25;96742.59;3509325;40;20910;-73
2021/07/03 01:25:57;;;;;;;11.13;8.50;;;;;;;12.26;82.15;96739.09;3507839;40;20481;-71
2021/07/03 01:28:26;;;;;;;15.63;9.70;;;;;;;11.99;83.39;96741.94;3510046;40;20768;-72
2021/07/03 01:30:54;;;;;;;17.60;9.53;;;;;;;12.05;83.26;96733.66;3511001;40;20602;-71
2021/07/03 01:33:22;;;;;;;19.73;8.50;;;;;;;12.14;82.90;96747.88;3508025;40;20558;-72
2021/07/03 01:35:51;;;;;;;13.13;7.57;;;;;;;12.19;82.63;96742.28;3507609;40;20503;-73
2021/07/03 01:38:20;;;;;;;17.63;9.30;;;;;;;12.15;82.28;96743.47;3507027;40;20771;-73
2021/07/03 01:40:49;;;;;;;13.00;8.27;;;;;;;12.19;82.16;96739.66;3513280;40;20509;-72
2021/07/03 01:43:21;;;;;;;17.50;9.80;;;;;;;12.16;82.10;96750.41;3511090;40;20845;-71
2021/07/03 01:45:49;;;;;;;20.30;8.67;;;;;;;12.11;82.02;96749.91;3508017;40;20857;-72
2021/07/03 01:48:27;;;;;;;17.37;8.53;;;;;;;12.11;81.85;96760.38;3505455;40;20775;-72
2021/07/03 01:50:56;;;;;;;14.10;8.17;;;;;;;12.00;82.25;96761.19;3510828;40;20479;-72
2021/07/03 01:53:24;;;;;;;12.87;8.00;;;;;;;11.91;82.10;96751.34;3511579;40;20444;-73
2021/07/03 01:55:54;;;;;;;13.00;8.87;;;;;;;11.96;81.94;96750.06;3509861;40;20920;-74
2021/07/03 01:58:25;;;;;;;14.00;7.13;;;;;;;11.90;82.19;96757.50;3508308;40;20832;-72
2021/07/03 02:00:55;;;;;;;12.63;8.73;;;;;;;11.80;82.45;96746.81;3509684;40;20830;-72
2021/07/03 02:03:23;;;;;;;13.53;8.10;;;;;;;11.76;82.83;96753.22;3511287;40;20477;-72
2021/07/03 02:05:52;;;;;;;17.00;7.30;;;;;;;11.77;82.08;96750.50;3511831;40;20518;-73
2021/07/03 02:08:21;;;;;;;15.10;7.63;;;;;;;11.75;81.87;96748.94;3509082;40;20458;-72
2021/07/03 02:10:50;;;;;;;19.23;9.23;;;;;;;11.70;82.48;96745.78;3508860;40;20766;-71
2021/07/03 02:13:19;;;;;;;13.83;8.20;;;;;;;11.73;82.55;96745.59;3507940;40;20568;-72
2021/07/03 02:15:47;;;;;;;11.43;7.23;;;;;;;11.71;82.40;96742.25;3510001;40;20554;-72
2021/07/03 02:18:15;;;;;;;10.23;7.03;;;;;;;11.62;82.53;96736.69;3514077;40;20694;-72
2021/07/03 02:20:43;;;;;;;11.80;7.53;;;;;;;11.64;82.84;96740.06;3507213;40;20483;-73
2021/07/03 02:23:12;;;;;;;11.93;7.43;;;;;;;11.59;82.80;96736.91;3507294;40;20468;-71
2021/07/03 02:25:40;;;;;;;15.43;8.50;;;;;;;11.61;82.53;96728.94;3507086;40;21136;-72
2021/07/03 02:28:08;;;;;;;20.23;8.50;;;;;;;11.60;82.80;96730.72;3509568;40;20813;-72
2021/07/03 02:30:37;;;;;;;19.60;9.23;;;;;;;11.58;83.12;96732.59;3509843;40;20572;-71
2021/07/03 02:33:05;;;;;;;13.87;9.20;;;;;;;11.57;83.15;96725.69;3511694;40;20561;-72
2021/07/03 02:35:33;;;;;;;20.13;9.67;;;;;;;11.59;83.35;96729.03;3508116;40;20901;-73
2021/07/03 02:38:01;;;;;;;13.87;8.90;;;;;;;11.27;84.23;96723.41;3509313;40;20533;-72
2021/07/03 02:40:29;;;;;;;20.40;8.20;;;;;;;11.05;84.82;96719.69;3511590;40;20572;-73
2021/07/03 02:42:57;;;;;;;11.17;7.13;;;;;;;11.16;84.05;96721.56;3513046;40;20936;-71
2021/07/03 02:45:25;;;;;;;14.03;7.10;;;;;;;11.27;83.64;96732.13;3517062;40;20475;-73
2021/07/03 02:47:55;;;;;;;11.03;7.40;;;;;;;11.23;83.32;96716.72;3507138;40;20791;-72
2021/07/03 02:50:23;;;;;;;11.20;7.20;;;;;;;11.35;83.52;96728.97;3507534;40;20493;-72
2021/07/03 02:52:50;;;;;;;15.63;8.07;;;;;;;11.32;83.40;96733.59;3513954;40;21143;-72
2021/07/03 02:55:18;;;;;;;20.83;8.77;;;;;;;11.13;84.20;96737.47;3505633;40;20860;-72
2021/07/03 02:57:46;;;;;;;13.10;8.03;;;;;;;11.12;84.45;96738.44;3507209;40;20759;-72
2021/07/03 03:00:16;;;;;;;12.67;8.10;;;;;;;11.03;84.47;96733.81;3510342;40;20967;-72
2021/07/03 03:02:45;;;;;;;10.20;7.17;;;;;;;11.18;84.25;96739.78;3508038;40;20442;-72
2021/07/03 03:05:15;;;;;;;21.50;8.17;;;;;;;11.20;83.65;96735.28;3509623;40;20844;-72
2021/07/03 03:07:44;;;;;;;12.83;6.93;;;;;;;11.20;83.60;96738.75;3513688;40;20440;-72
2021/07/03 03:10:15;;;;;;;14.40;7.00;;;;;;;11.23;83.34;96725.44;3509647;40;20471;-73
2021/07/03 03:12:43;;;;;;;11.80;7.77;;;;;;;11.22;83.70;96721.13;3509759;40;20572;-71
2021/07/03 03:15:13;;;;;;;12.63;7.67;;;;;;;11.21;83.77;96724.69;3509034;40;20854;-72
2021/07/03 03:17:44;;;;;;;13.27;7.93;;;;;;;11.14;84.24;96722.59;3509960;40;20523;-71
2021/07/03 03:20:14;;;;;;;12.20;7.50;;;;;;;11.13;84.43;96721.75;3510539;40;20860;-73
2021/07/03 03:22:43;;;;;;;13.37;8.40;;;;;;;11.15;84.48;96714.63;3508506;40;21114;-72
2021/07/03 03:25:11;;;;;;;15.10;8.33;;;;;;;11.32;84.23;96715.25;3507481;40;20584;-73
2021/07/03 03:27:39;;;;;;;13.73;8.20;;;;;;;11.31;84.04;96713.56;3514449;40;20553;-72
2021/07/03 03:30:08;;;;;;;17.70;9.50;;;;;;;11.24;84.46;96721.84;3509413;40;20474;-73
2021/07/03 03:32:37;;;;;;;14.87;8.07;;;;;;;11.34;84.05;96716.81;3508684;40;21114;-72
2021/07/03 03:35:07;;;;;;;15.73;8.23;;;;;;;11.37;83.76;96715.75;3508099;40;20905;-72
2021/07/03 03:37:36;;;;;;;15.40;8.33;;;;;;;11.33;83.92;96719.53;3507754;40;20458;-73
2021/07/03 03:40:06;;;;;;;14.10;9.07;;;;;;;11.25;84.06;96713.06;3506536;40;21107;-73
2021/07/03 03:42:34;;;;;;;16.33;7.13;;;;;;;11.06;83.14;96721.34;3515914;40;21184;-70
2021/07/03 03:45:03;;;;;;;9.37;6.70;;;;;;;11.02;83.25;96722.50;3508048;40;20543;-72
2021/07/03 03:47:31;;;;;;;11.20;6.43;;;;;;;11.10;83.42;96724.59;3507181;40;20734;-73
2021/07/03 03:50:00;;;;;;;14.13;7.87;;;;;;;11.25;83.18;96722.69;3507781;40;20847;-70
2021/07/03 03:52:27;;;;;;;14.47;8.03;;;;;;;11.24;83.04;96710.53;3505850;40;20835;-71
2021/07/03 03:54:57;;;;;;;10.03;6.80;;;;;;;11.25;82.81;96720.91;3510166;40;20567;-71
2021/07/03 03:57:29;;;;;;;10.83;7.00;;;;;;;11.31;83.05;96718.78;3510630;40;20529;-71
2021/07/03 03:59:58;;;;;;;10.23;6.77;;;;;;;11.33;82.28;96722.16;3515322;40;20491;-71
2021/07/03 04:02:27;;;;;;;9.63;6.63;;;;;;;11.29;82.77;96718.94;3516629;40;20957;-73
2021/07/03 04:04:55;;;;;;;13.77;8.40;;;;;;;11.38;82.81;96718.25;3507631;40;20491;-70
2021/07/03 04:07:23;;;;;;;20.90;7.10;;;;;;;11.22;82.67;96720.28;3510340;40;20735;-72
2021/07/03 04:09:51;;;;;;;13.80;7.43;;;;;;;11.25;82.84;96723.53;3508354;40;20741;-71
2021/07/03 04:12:20;;;;;;;21.33;8.50;;;;;;;11.01;84.71;96727.84;3504649;40;20475;-72
2021/07/03 04:14:48;;;;;;;12.93;7.87;;;;;;;11.27;83.79;96718.16;3504515;40;20553;-72
2021/07/03 04:17:17;;;;;;;18.17;7.80;;;;;;;11.51;83.32;96731.38;3506935;40;20452;-72
2021/07/03 04:19:44;;;;;;;15.00;7.70;;;;;;;11.57;83.41;96715.19;3508274;40;20471;-70
2021/07/03 04:22:16;;;;;;;13.50;8.73;;;;;;;11.55;84.35;96727.56;3509236;40;20444;-73
2021/07/03 04:24:44;;;;;;;14.70;7.47;;;;;;;11.73;83.35;96728.06;3503776;40;20787;-72
2021/07/03 04:27:13;;;;;;;13.83;7.87;;;;;;;11.86;83.25;96728.03;3506881;40;20564;-71
2021/07/03 04:29:42;;;;;;;14.33;8.47;;;;;;;11.98;83.26;96732.41;3505616;40;20820;-70
2021/07/03 04:32:10;;;;;;;12.63;8.00;;;;;;;11.95;83.59;96732.63;3509115;40;20741;-70
2021/07/03 04:34:38;;;;;;;17.80;8.47;;;;;;;12.03;81.63;96727.66;3508402;40;20859;-71
2021/07/03 04:37:19;;;;;;;17.03;8.27;;;;;;;11.73;81.74;96732.47;3503807;40;20775;-72
2021/07/03 04:39:47;;;;;;;15.20;8.50;;;;;;;11.56;82.77;96731.03;3504079;40;20560;-73
2021/07/03 04:42:15;;;;;;;11.83;7.70;;;;;;;11.93;81.47;96724.03;3506100;40;20867;-70
2021/07/03 04:44:44;;;;;;;19.17;7.80;;;;;;;11.93;81.10;96718.78;3508967;40;20450;-71
2021/07/03 04:47:12;;;;;;;13.20;7.40;;;;;;;12.04;82.12;96725.88;3509043;40;20766;-72
2021/07/03 04:49:40;;;;;;;10.17;7.40;;;;;;;12.11;81.03;96723.66;3507268;40;20758;-73
2021/07/03 04:52:08;;;;;;;11.10;6.80;;;;;;;12.22;80.90;96728.94;3508138;40;20827;-72
2021/07/03 04:54:37;;;;;;;10.83;7.20;;;;;;;12.27;80.42;96725.03;3506328;40;20541;-71
2021/07/03 04:57:11;;;;;;;19.53;7.80;;;;;;;12.01;81.49;96721.69;3509649;40;20548;-72
2021/07/03 04:59:41;;;;;;;17.13;8.47;;;;;;;12.12;81.57;96726.16;3508064;40;20446;-71
2021/07/03 05:02:12;;;;;;;15.80;8.23;;;;;;;12.29;80.58;96724.94;3507110;40;20474;-71
2021/07/03 05:04:41;;;;;;;14.20;9.13;;;;;;;12.28;80.76;96718.00;3507052;40;21108;-74
2021/07/03 05:07:09;;;;;;;14.73;8.23;;;;;;;12.29;80.91;96718.81;3507020;40;20689;-70
2021/07/03 05:09:37;;;;;;;18.37;8.40;;;;;;;12.50;80.56;96716.41;3509559;40;20471;-71
2021/07/03 05:12:06;;;;;;;15.83;7.63;;;;;;;12.69;79.94;96718.50;3509035;40;20486;-74
2021/07/03 05:14:34;;;;;;;15.00;9.07;;;;;;;12.90;79.48;96713.38;3506737;40;20557;-72
2021/07/03 05:17:02;;;;;;;13.20;8.37;;;;;;;12.90;79.58;96711.63;3506419;40;20885;-73
2021/07/03 05:19:32;;;;;;;12.83;7.70;;;;;;;13.07;79.47;96718.19;3506846;40;20948;-71
2021/07/03 05:22:00;;;;;;;19.10;8.33;;;;;;;13.18;78.32;96693.72;3504103;40;20558;-72
2021/07/03 05:24:28;;;;;;;13.77;8.53;;;;;;;13.08;78.86;96708.53;3504053;40;20503;-70
2021/07/03 05:26:56;;;;;;;13.70;7.70;;;;;;;13.32;78.01;96695.28;3506577;40;20843;-71
2021/07/03 05:29:24;;;;;;;16.90;8.37;;;;;;;13.77;76.92;96713.66;3506615;40;20468;-71
2021/07/03 05:31:52;;;;;;;12.10;7.80;;;;;;;14.06;76.25;96711.31;3506282;40;20496;-72
2021/07/03 05:34:20;;;;;;;15.47;8.47;;;;;;;14.08;75.75;96705.94;3514252;40;21098;-71
2021/07/03 05:36:50;;;;;;;8.83;6.50;;;;;;;14.07;76.02;96707.72;3510058;40;20438;-70
2021/07/03 05:39:18;;;;;;;13.53;7.93;;;;;;;14.21;75.86;96699.53;3506967;40;20759;-72
2021/07/03 05:41:45;;;;;;;12.13;8.07;;;;;;;14.21;75.95;96701.31;3506912;40;20478;-71
2021/07/03 05:44:13;;;;;;;12.17;8.30;;;;;;;14.31;76.19;96707.53;3506868;40;20524;-72
2021/07/03 05:46:42;;;;;;;16.80;8.27;;;;;;;14.58;75.58;96709.72;3509663;40;20543;-70
2021/07/03 05:49:10;;;;;;;12.70;8.23;;;;;;;14.78;74.52;96704.59;3512039;40;20462;-73
2021/07/03 05:51:38;;;;;;;12.93;6.77;;;;;;;14.91;74.39;96702.56;3508056;40;20754;-72
2021/07/03 05:54:08;;;;;;;17.60;8.40;;;;;;;14.93;73.80;96703.25;3506091;40;20851;-72
2021/07/03 05:56:36;;;;;;;12.83;8.17;;;;;;;14.80;74.49;96682.38;3506481;40;20464;-73
2021/07/03 05:59:04;;;;;;;11.13;7.67;;;;;;;15.31;73.07;96698.31;3518216;40;20850;-71
2021/07/03 06:01:32;;;;;;;13.73;7.60;;;;;;;15.56;72.51;96705.78;3509511;40;20460;-73
2021/07/03 06:04:00;;;;;;;13.90;8.10;;;;;;;15.80;72.55;96696.72;3510256;40;20482;-72
2021/07/03 06:06:28;;;;;;;14.63;7.90;;;;;;;16.06;71.18;96699.69;3508759;40;20602;-71
2021/07/03 06:08:56;;;;;;;13.07;7.13;;;;;;;16.47;70.14;96694.28;3509597;40;20840;-72
2021/07/03 06:11:25;;;;;;;14.40;7.97;;;;;;;16.50;69.97;96699.28;3513810;40;20504;-71
2021/07/03 06:13:54;;;;;;;14.90;8.70;;;;;;;16.72;68.88;96693.69;3505882;40;20529;-71
2021/07/03 06:16:22;;;;;;;13.10;7.67;;;;;;;16.38;70.17;96688.00;3567245;40;20775;-70
2021/07/03 06:18:50;;;;;;;14.07;8.30;;;;;;;16.98;68.27;96687.81;3570957;40;20524;-73
2021/07/03 06:21:18;;;;;;;11.63;7.60;;;;;;;17.19;66.91;96682.34;3569219;39;20449;-71
2021/07/03 06:23:46;;;;;;;13.80;8.60;;;;;;;17.41;65.86;96683.78;3571791;40;20814;-69
2021/07/03 06:26:14;;;;;;;16.27;7.57;;;;;;;17.66;64.57;96694.66;3569818;39;20450;-71
2021/07/03 06:28:44;;;;;;;9.27;6.60;;;;;;;17.75;63.76;96683.19;3570402;40;20749;-70
2021/07/03 06:31:12;;;;;;;17.60;7.37;;;;;;;18.13;63.83;96684.81;3566077;40;20777;-71
2021/07/03 06:33:41;;;;;;;11.30;6.33;;;;;;;18.55;63.28;96678.88;3567489;40;20434;-73
2021/07/03 06:36:09;;;;;;;8.57;6.40;;;;;;;18.63;60.98;96680.75;3566442;40;20858;-71
2021/07/03 06:38:37;;;;;;;11.97;6.70;;;;;;;18.65;60.56;96685.91;3571678;39;20842;-71
2021/07/03 06:41:04;;;;;;;11.00;7.27;;;;;;;18.63;59.56;96680.75;3567504;40;20465;-71
2021/07/03 06:43:32;;;;;;;11.33;7.47;;;;;;;18.48;60.89;96679.63;3571684;40;20837;-69
2021/07/03 06:46:02;;;;;;;9.43;6.13;;;;;;;18.71;58.75;96683.47;3573274;39;20833;-71
2021/07/03 06:48:30;;;;;;;10.97;6.70;;;;;;;18.67;60.00;96679.47;3567409;40;20879;-71
2021/07/03 06:50:58;;;;;;;8.93;6.00;;;;;;;18.68;59.12;96680.28;3566067;40;20657;-70
2021/07/03 06:53:25;;;;;;;10.37;6.00;;;;;;;18.82;58.46;96663.00;3569455;40;20442;-71
2021/07/03 06:55:53;;;;;;;9.40;5.87;;;;;;;18.87;58.92;96674.00;3569729;40;20663;-71
2021/07/03 06:58:21;;;;;;;13.27;7.23;;;;;;;19.01;57.73;96680.56;3570296;40;20454;-69
2021/07/03 07:00:49;;;;;;;9.73;6.57;;;;;;;19.15;59.40;96680.81;3570322;39;20771;-72
2021/07/03 07:03:18;;;;;;;11.60;6.40;;;;;;;19.17;58.33;96685.97;3568287;40;20778;-70
2021/07/03 07:05:46;;;;;;;13.73;6.17;;;;;;;19.29;59.37;96689.19;3569000;40;20538;-71
2021/07/03 07:08:14;;;;;;;11.30;5.57;;;;;;;19.43;58.01;96683.28;3568695;40;20614;-72
2021/07/03 07:10:42;;;;;;;8.17;5.53;;;;;;;19.49;57.40;96682.66;3569716;40;20869;-72
2021/07/03 07:13:10;;;;;;;13.43;6.57;;;;;;;19.67;56.81;96681.72;3570877;40;20532;-71
2021/07/03 07:15:38;;;;;;;9.77;5.67;;;;;;;19.70;56.70;96681.41;3570267;39;20903;-71
2021/07/03 07:18:06;;;;;;;8.90;5.40;;;;;;;19.51;56.01;96675.34;3569806;40;20530;-71
2021/07/03 07:20:35;;;;;;;12.30;5.43;;;;;;;19.38;55.08;96669.63;3570709;39;20668;-70
2021/07/03 07:23:03;;;;;;;8.40;5.70;;;;;;;19.86;55.90;96665.53;3568236;40;20914;-74
2021/07/03 07:25:31;;;;;;;11.10;6.97;;;;;;;19.80;56.89;96668.00;3569070;40;20721;-70
2021/07/03 07:27:59;;;;;;;8.90;5.20;;;;;;;19.74;53.40;96630.47;3572999;40;20438;-71
2021/07/03 07:30:27;;;;;;;7.93;5.60;;;;;;;19.77;53.46;96673.66;3569075;40;20826;-72
2021/07/03 07:32:54;;;;;;;7.00;5.40;;;;;;;19.55;54.01;96668.72;3567559;40;20792;-70
2021/07/03 07:35:22;;;;;;;8.63;5.73;;;;;;;19.95;53.15;96655.75;3568339;40;20551;-70
2021/07/03 07:37:52;;;;;;;7.83;4.70;;;;;;;20.15;53.65;96661.63;3566594;40;20460;-72
2021/07/03 07:40:21;;;;;;;9.20;5.83;;;;;;;20.29;53.72;96658.31;3566057;40;20865;-71
2021/07/03 07:42:49;;;;;;;7.47;5.13;;;;;;;20.42;52.40;96654.31;3571865;40;20676;-71
2021/07/03 07:45:17;;;;;;;8.43;4.97;;;;;;;20.25;51.11;96657.00;3568294;40;20460;-71
2021/07/03 07:47:47;;;;;;;11.07;5.90;;;;;;;20.32;52.17;96652.66;3568379;40;20938;-72
2021/07/03 07:50:16;;;;;;;12.50;5.73;;;;;;;20.86;51.96;96656.69;3571113;39;20538;-71
2021/07/03 07:52:44;;;;;;;7.83;4.63;;;;;;;21.03;51.76;96655.66;3567204;40;20466;-71
2021/07/03 07:55:13;;;;;;;7.53;5.43;;;;;;;21.24;51.38;96655.09;3566189;40;20874;-72
2021/07/03 07:57:41;;;;;;;7.90;5.77;;;;;;;21.25;50.81;96647.94;3566292;40;20575;-71
2021/07/03 08:00:10;;;;;;;8.60;4.60;;;;;;;21.53;49.41;96648.38;3568519;40;20513;-71
2021/07/03 08:02:38;;;;;;;6.03;3.80;;;;;;;21.11;47.95;96641.47;3569089;40;20446;-72
2021/07/03 08:05:08;;;;;;;14.27;5.67;;;;;;;20.81;48.99;96635.06;3582088;39;20849;-70
2021/07/03 08:07:36;;;;;;;8.73;4.63;;;;;;;21.11;46.51;96629.00;3570795;40;20466;-71
2021/07/03 08:10:04;;;;;;;8.47;4.70;;;;;;;21.36;45.73;96642.22;3570050;40;20789;-71
2021/07/03 08:12:34;;;;;;;6.13;5.20;;;;;;;21.33;46.51;96614.13;3572033;40;20853;-74
2021/07/03 08:15:04;;;;;;;7.13;4.93;;;;;;;21.60;47.00;96646.69;3574625;39;20760;-71
2021/07/03 08:17:32;;;;;;;6.50;5.17;;;;;;;21.76;47.06;96640.44;3573170;40;20476;-71
2021/07/03 08:20:01;;;;;;;11.43;4.87;;;;;;;21.77;46.69;96635.94;3574500;39;20705;-72
2021/07/03 08:22:29;;;;;;;6.80;4.40;;;;;;;21.79;47.40;96624.09;3569387;40;20454;-73
2021/07/03 08:24:57;;;;;;;8.17;4.67;;;;;;;22.20;46.95;96634.50;3571554;40;20812;-71
2021/07/03 08:27:25;;;;;;;14.30;5.43;;;;;;;22.20;45.32;96634.50;3573310;40;20852;-71
2021/07/03 08:29:54;;;;;;;6.40;4.63;;;;;;;22.05;44.08;96628.25;3566860;40;21149;-71
2021/07/03 08:32:22;;;;;;;8.27;4.40;;;;;;;22.11;45.60;96636.41;3565855;40;20543;-71
2021/07/03 08:34:50;;;;;;;7.07;5.03;;;;;;;22.05;45.90;96636.25;3567575;40;20747;-72
2021/07/03 08:37:18;;;;;;;7.50;4.93;;;;;;;21.80;45.05;96633.75;3568812;40;20484;-72
2021/07/03 08:39:46;;;;;;;6.17;4.67;;;;;;;22.64;43.27;96628.50;3571416;39;20807;-71
2021/07/03 08:42:14;;;;;;;8.13;4.37;;;;;;;22.40;43.48;96626.03;3572089;40;20826;-71
2021/07/03 08:44:46;;;;;;;9.33;4.80;;;;;;;22.30;43.16;96637.78;3569465;40;20709;-70
2021/07/03 08:47:15;;;;;;;6.20;4.03;;;;;;;22.26;43.62;96633.81;3569510;40;20531;-71
2021/07/03 08:49:51;;;;;;;10.83;4.30;;;;;;;22.31;43.25;96627.97;3564986;40;20480;-71
2021/07/03 08:52:20;;;;;;;5.63;4.50;;;;;;;22.49;43.32;96631.13;3570886;39;21115;-72
2021/07/03 08:54:55;;;;;;;8.77;4.83;;;;;;;22.53;42.73;96636.94;3569021;40;20877;-72
2021/07/03 08:57:27;;;;;;;8.50;4.40;;;;;;;22.26;44.07;96633.81;3569603;40;20908;-73
2021/07/03 08:59:57;;;;;;;8.60;5.40;;;;;;;22.75;42.96;96615.72;3567760;40;20783;-72
2021/07/03 09:02:37;;;;;;;6.03;4.60;;;;;;;23.30;41.55;96628.69;3570184;40;20452;-72
2021/07/03 09:05:18;;;;;;;8.33;4.60;;;;;;;22.61;42.96;96626.19;3570312;39;20504;-72
2021/07/03 09:07:46;;;;;;;5.50;4.70;;;;;;;23.20;41.18;96621.97;3569135;40;20515;-71
2021/07/03 09:10:19;;;;;;;8.17;5.50;;;;;;;23.02;41.64;96614.31;3567857;40;20499;-72
2021/07/03 09:12:50;;;;;;;7.93;4.97;;;;;;;23.83;40.45;96612.50;3570352;40;20512;-71
2021/07/03 09:15:20;;;;;;;6.43;4.20;;;;;;;23.83;40.68;96617.03;3568789;40;20828;-71
2021/07/03 09:17:52;;;;;;;8.20;5.43;;;;;;;23.09;42.46;96605.41;3570815;40;20465;-70
2021/07/03 09:20:29;;;;;;;7.87;4.73;;;;;;;23.24;43.05;96612.56;3566986;39;20595;-72
2021/07/03 09:23:08;;;;;;;7.73;5.47;;;;;;;23.15;42.62;96611.84;3569687;40;20974;-70
2021/07/03 09:25:36;;;;;;;6.20;4.13;;;;;;;23.08;42.13;96614.41;3569985;40;20896;-70
2021/07/03 09:28:08;;;;;;;7.47;4.30;;;;;;;23.53;42.17;96618.91;3570513;40;20716;-71
2021/07/03 09:30:36;;;;;;;6.60;4.63;;;;;;;23.38;41.23;96610.91;3571089;39;20461;-71
2021/07/03 09:33:06;;;;;;;7.60;4.73;;;;;;;23.67;39.91;96615.38;3569750;40;20509;-71
2021/07/03 09:35:34;;;;;;;5.17;3.97;;;;;;;23.15;40.15;96603.84;3570032;40;20561;-72
2021/07/03 09:38:13;;;;;;;6.60;4.00;;;;;;;24.19;40.00;96597.47;3567439;40;20478;-72
2021/07/03 09:40:41;;;;;;;5.77;4.27;;;;;;;25.27;39.26;96592.75;3567029;40;20862;-72
2021/07/03 09:43:11;;;;;;;4.70;3.60;;;;;;;24.63;38.18;96586.53;3578198;39;20554;-72
2021/07/03 09:45:41;;;;;;;9.13;4.43;;;;;;;25.65;36.65;96578.91;3569642;40;20854;-73
2021/07/03 09:48:12;;;;;;;6.07;4.70;;;;;;;24.41;38.49;96582.22;3571217;40;20926;-72
2021/07/03 09:50:41;;;;;;;5.20;3.63;;;;;;;24.15;38.72;96572.94;3569674;40;20897;-70
2021/07/03 09:53:09;;;;;;;9.70;4.40;;;;;;;24.15;37.68;96572.94;3572849;40;20437;-71
2021/07/03 09:55:38;;;;;;;5.20;3.97;;;;;;;23.90;38.88;96580.50;3571161;39;20519;-72
2021/07/03 09:58:08;;;;;;;4.27;3.50;;;;;;;24.34;37.13;96581.34;3568542;40;20469;-73
2021/07/03 10:00:38;;;;;;;6.30;4.07;;;;;;;24.59;36.98;96579.94;3569772;40;21099;-70
2021/07/03 10:03:07;;;;;;;4.93;3.97;;;;;;;24.14;37.78;96573.97;3571331;40;20856;-71
2021/07/03 10:05:40;;;;;;;4.63;3.83;;;;;;;23.62;38.52;96588.38;3573628;39;20457;-72
2021/07/03 10:08:11;;;;;;;5.43;4.40;;;;;;;23.32;40.35;96593.78;3571303;40;20558;-72
2021/07/03 10:10:49;;;;;;;5.27;4.33;;;;;;;23.78;38.19;96582.84;3569889;40;20477;-71
2021/07/03 10:13:22;;;;;;;4.50;3.63;;;;;;;23.79;36.65;96576.47;3568424;40;20497;-71
2021/07/03 10:15:50;;;;;;;4.30;3.37;;;;;;;24.13;38.23;96568.78;3572185;40;20545;-71
2021/07/03 10:18:22;;;;;;;4.23;3.63;;;;;;;24.79;35.85;96576.56;3579083;39;21243;-72
2021/07/03 10:20:54;;;;;;;7.70;4.30;;;;;;;25.25;36.91;96568.84;3571324;39;20624;-71
2021/07/03 10:23:21;;;;;;;4.30;3.50;;;;;;;25.14;36.54;96544.44;3567863;40;20438;-71
2021/07/03 10:25:51;;;;;;;4.30;3.30;;;;;;;24.83;35.76;96559.91;3566963;40;20465;-71
2021/07/03 10:28:31;;;;;;;4.40;3.40;;;;;;;24.40;37.15;96559.16;3567134;40;20962;-72
2021/07/03 10:31:05;;;;;;;4.70;3.47;;;;;;;24.82;35.91;96560.94;3579191;39;20505;-71
2021/07/03 10:33:42;;;;;;;5.47;3.40;;;;;;;25.31;35.33;96556.50;3571868;40;20858;-71
2021/07/03 10:36:23;;;;;;;7.90;3.30;;;;;;;25.22;35.43;96557.69;3567062;40;21104;-70
2021/07/03 10:38:51;;;;;;;4.60;3.27;;;;;;;26.50;34.28;96554.28;3571180;40;20968;-70
2021/07/03 10:41:23;;;;;;;4.03;3.30;;;;;;;26.33;32.72;96549.34;3570297;40;20852;-70
2021/07/03 10:43:52;;;;;;;5.70;3.20;;;;;;;27.29;32.44;96542.63;3574117;40;20442;-71
2021/07/03 10:46:28;;;;;;;4.70;3.13;;;;;;;27.62;32.34;96547.06;3570002;40;20951;-71
2021/07/03 10:48:58;;;;;;;5.20;3.60;;;;;;;26.66;33.06;96536.97;3569386;40;20455;-71
2021/07/03 10:51:34;;;;;;;8.20;3.83;;;;;;;25.54;34.73;96539.25;3570474;40;20494;-72
2021/07/03 10:54:07;;;;;;;6.87;3.70;;;;;;;25.89;35.19;96542.66;3571328;39;20715;-72
2021/07/03 10:56:44;;;;;;;4.20;3.30;;;;;;;25.55;33.02;96539.06;3571088;40;20458;-70
2021/07/03 10:59:15;;;;;;;4.13;3.33;;;;;;;25.90;31.71;96543.50;3567822;40;20590;-71
2021/07/03 11:01:43;;;;;;;5.13;3.20;;;;;;;26.22;32.43;96529.31;3569781;40;20445;-71
2021/07/03 11:04:16;;;;;;;3.10;2.80;;;;;;;26.53;32.43;96533.22;3569484;40;20686;-71
2021/07/03 11:06:48;;;;;;;4.70;3.20;;;;;;;27.73;30.60;96534.78;3570787;40;20818;-71
2021/07/03 11:09:28;;;;;;;4.10;3.00;;;;;;;27.75;31.03;96535.38;3570710;39;20484;-71
2021/07/03 11:11:59;;;;;;;4.57;3.30;;;;;;;27.20;30.73;96525.06;3565936;40;20718;-71
2021/07/03 11:14:28;;;;;;;7.47;3.37;;;;;;;25.32;35.06;96534.03;3565017;40;20502;-71
2021/07/03 11:16:58;;;;;;;3.97;3.23;;;;;;;24.83;33.83;96532.31;3568779;39;20538;-71
2021/07/03 11:19:29;;;;;;;5.73;2.93;;;;;;;25.16;34.19;96529.00;3572173;39;20438;-72
2021/07/03 11:22:07;;;;;;;8.60;3.30;;;;;;;25.26;33.87;96524.13;3571485;39;20676;-71
2021/07/03 11:24:44;;;;;;;4.20;3.80;;;;;;;26.06;32.18;96520.84;3573808;40;20729;-72
2021/07/03 11:27:12;;;;;;;4.73;3.67;;;;;;;26.46;31.87;96518.16;3569635;40;20874;-73
2021/07/03 11:29:43;;;;;;;6.20;3.07;;;;;;;26.30;31.28;96509.50;3578058;39;20478;-71
2021/07/03 11:32:11;;;;;;;3.37;3.07;;;;;;;27.28;30.68;96503.34;3573964;40;20894;-71
2021/07/03 11:34:50;;;;;;;3.77;3.10;;;;;;;28.16;28.42;96499.13;3572221;39;20464;-71
2021/07/03 11:37:27;;;;;;;4.40;2.50;;;;;;;27.01;30.62;96503.44;3571527;40;20461;-71
2021/07/03 11:39:56;;;;;;;5.60;3.50;;;;;;;28.88;28.86;96499.53;3566504;40;20563;-71